sensor_id;sensor_type;location;lat;lon;timestamp;pressure;altitude;pressure_sealevel;temperature;humidity
72802;BME280;61891;55.818;37.084;2023-06-10T00:01:01;99944.72;;;12.59;48.01
72802;BME280;61891;55.818;37.084;2023-06-10T00:03:26;99937.59;;;12.52;48.19
72802;BME280;61891;55.818;37.084;2023-06-10T00:05:52;99971.66;;;12.73;48.34
72802;BME280;61891;55.818;37.084;2023-06-10T00:08:18;99976.16;;;12.72;48.33
72802;BME280;61891;55.818;37.084;2023-06-10T00:10:45;99975.31;;;12.72;48.04
72802;BME280;61891;55.818;37.084;2023-06-10T00:13:11;99949.88;;;12.53;48.41
72802;BME280;61891;55.818;37.084;2023-06-10T00:15:37;99983.16;;;12.73;48.58
72802;BME280;61891;55.818;37.084;2023-06-10T00:18:03;99980.31;;;12.75;48.25
72802;BME280;61891;55.818;37.084;2023-06-10T00:20:29;99977.81;;;12.73;48.18
72802;BME280;61891;55.818;37.084;2023-06-10T00:22:57;99969.50;;;12.68;48.36
72802;BME280;61891;55.818;37.084;2023-06-10T00:25:24;99994.28;;;12.77;48.23
72802;BME280;61891;55.818;37.084;2023-06-10T00:27:51;99995.28;;;12.76;48.66
72802;BME280;61891;55.818;37.084;2023-06-10T00:30:17;99999.94;;;12.74;48.25
72802;BME280;61891;55.818;37.084;2023-06-10T00:32:43;99979.31;;;12.59;48.46
72802;BME280;61891;55.818;37.084;2023-06-10T00:35:08;100000.09;;;12.64;48.56
72802;BME280;61891;55.818;37.084;2023-06-10T00:37:34;100011.06;;;12.61;48.60
72802;BME280;61891;55.818;37.084;2023-06-10T00:40:04;100005.56;;;12.54;48.87
72802;BME280;61891;55.818;37.084;2023-06-10T00:42:31;100013.53;;;12.54;49.24
72802;BME280;61891;55.818;37.084;2023-06-10T00:44:57;100004.22;;;12.50;49.19
72802;BME280;61891;55.818;37.084;2023-06-10T00:47:23;100023.03;;;12.57;49.05
72802;BME280;61891;55.818;37.084;2023-06-10T00:49:49;100018.38;;;12.59;49.54
72802;BME280;61891;55.818;37.084;2023-06-10T00:52:16;100010.38;;;12.51;48.96
72802;BME280;61891;55.818;37.084;2023-06-10T00:54:44;100029.66;;;12.53;49.04
72802;BME280;61891;55.818;37.084;2023-06-10T00:57:10;100002.53;;;12.33;49.38
72802;BME280;61891;55.818;37.084;2023-06-10T00:59:36;100028.66;;;12.46;49.42
72802;BME280;61891;55.818;37.084;2023-06-10T01:02:03;100005.31;;;12.23;49.96
72802;BME280;61891;55.818;37.084;2023-06-10T01:04:29;100038.59;;;12.36;49.66
72802;BME280;61891;55.818;37.084;2023-06-10T01:07:21;100043.72;;;12.29;50.17
72802;BME280;61891;55.818;37.084;2023-06-10T01:10:02;100043.38;;;12.24;50.80
72802;BME280;61891;55.818;37.084;2023-06-10T01:12:55;100050.81;;;12.20;50.77
72802;BME280;61891;55.818;37.084;2023-06-10T01:15:22;100034.34;;;12.09;50.31
72802;BME280;61891;55.818;37.084;2023-06-10T01:17:59;100031.16;;;12.05;50.63
72802;BME280;61891;55.818;37.084;2023-06-10T01:20:26;100035.81;;;12.03;50.66
72802;BME280;61891;55.818;37.084;2023-06-10T01:22:56;100044.47;;;12.05;50.54
72802;BME280;61891;55.818;37.084;2023-06-10T01:25:24;100054.09;;;12.06;50.37
72802;BME280;61891;55.818;37.084;2023-06-10T01:28:14;100039.44;;;11.94;51.22
72802;BME280;61891;55.818;37.084;2023-06-10T01:33:25;100054.72;;;12.00;51.10
72802;BME280;61891;55.818;37.084;2023-06-10T01:35:56;99966.56;;;11.37;50.77
72802;BME280;61891;55.818;37.084;2023-06-10T01:38:25;100028.16;;;11.74;51.20
72802;BME280;61891;55.818;37.084;2023-06-10T01:40:53;99994.03;;;11.53;50.87
72802;BME280;61891;55.818;37.084;2023-06-10T01:43:20;100061.66;;;11.93;51.04
72802;BME280;61891;55.818;37.084;2023-06-10T01:45:47;100059.34;;;11.90;50.95
72802;BME280;61891;55.818;37.084;2023-06-10T01:48:12;100072.78;;;11.88;50.98
72802;BME280;61891;55.818;37.084;2023-06-10T01:50:38;100069.28;;;11.88;51.48
72802;BME280;61891;55.818;37.084;2023-06-10T01:53:04;100027.09;;;11.59;51.46
72802;BME280;61891;55.818;37.084;2023-06-10T01:55:33;100074.22;;;11.83;51.54
72802;BME280;61891;55.818;37.084;2023-06-10T01:57:59;100069.16;;;11.72;51.44
72802;BME280;61891;55.818;37.084;2023-06-10T02:00:24;100071.50;;;11.75;51.64
72802;BME280;61891;55.818;37.084;2023-06-10T02:02:50;100054.88;;;11.73;51.29
72802;BME280;61891;55.818;37.084;2023-06-10T02:05:16;100082.72;;;11.86;51.50
72802;BME280;61891;55.818;37.084;2023-06-10T02:07:41;100077.25;;;11.88;51.69
72802;BME280;61891;55.818;37.084;2023-06-10T02:10:07;100066.03;;;11.76;51.61
72802;BME280;61891;55.818;37.084;2023-06-10T02:12:33;100084.06;;;11.90;52.04
72802;BME280;61891;55.818;37.084;2023-06-10T02:14:59;100089.22;;;11.92;51.61
72802;BME280;61891;55.818;37.084;2023-06-10T02:17:25;100093.56;;;11.93;51.20
72802;BME280;61891;55.818;37.084;2023-06-10T02:20:11;100084.22;;;11.89;51.32
72802;BME280;61891;55.818;37.084;2023-06-10T02:22:39;100076.25;;;11.89;51.67
72802;BME280;61891;55.818;37.084;2023-06-10T02:25:07;100031.78;;;11.65;51.32
72802;BME280;61891;55.818;37.084;2023-06-10T02:27:33;100074.94;;;11.93;51.47
72802;BME280;61891;55.818;37.084;2023-06-10T02:29:59;100096.63;;;12.06;51.58
72802;BME280;61891;55.818;37.084;2023-06-10T02:32:25;100056.63;;;11.82;50.87
72802;BME280;61891;55.818;37.084;2023-06-10T02:34:51;100094.47;;;12.10;51.05
72802;BME280;61891;55.818;37.084;2023-06-10T02:37:19;100050.84;;;11.86;51.14
72802;BME280;61891;55.818;37.084;2023-06-10T02:39:46;100067.50;;;11.97;50.87
72802;BME280;61891;55.818;37.084;2023-06-10T02:42:11;100095.81;;;12.14;51.17
72802;BME280;61891;55.818;37.084;2023-06-10T02:44:38;100080.66;;;12.06;51.22
72802;BME280;61891;55.818;37.084;2023-06-10T02:47:05;100094.34;;;12.19;50.97
72802;BME280;61891;55.818;37.084;2023-06-10T02:49:32;100092.53;;;12.20;51.04
72802;BME280;61891;55.818;37.084;2023-06-10T02:52:00;100101.03;;;12.32;50.97
72802;BME280;61891;55.818;37.084;2023-06-10T02:54:26;100107.03;;;12.34;50.75
72802;BME280;61891;55.818;37.084;2023-06-10T02:56:54;100093.03;;;12.23;50.91
72802;BME280;61891;55.818;37.084;2023-06-10T02:59:23;100059.41;;;12.06;50.30
72802;BME280;61891;55.818;37.084;2023-06-10T03:01:49;100121.53;;;12.39;50.73
72802;BME280;61891;55.818;37.084;2023-06-10T03:04:15;100082.41;;;12.23;50.83
72802;BME280;61891;55.818;37.084;2023-06-10T03:06:48;100117.06;;;12.48;51.00
72802;BME280;61891;55.818;37.084;2023-06-10T03:09:20;100093.94;;;12.40;50.83
72802;BME280;61891;55.818;37.084;2023-06-10T03:11:49;100087.47;;;12.43;50.78
72802;BME280;61891;55.818;37.084;2023-06-10T03:14:14;100111.44;;;12.59;50.84
72802;BME280;61891;55.818;37.084;2023-06-10T03:16:40;100113.31;;;12.67;50.44
72802;BME280;61891;55.818;37.084;2023-06-10T03:19:08;100099.81;;;12.60;50.50
72802;BME280;61891;55.818;37.084;2023-06-10T03:21:35;100123.97;;;12.75;50.37
72802;BME280;61891;55.818;37.084;2023-06-10T03:24:04;100117.16;;;12.80;50.23
72802;BME280;61891;55.818;37.084;2023-06-10T03:26:31;100121.16;;;12.84;50.06
72802;BME280;61891;55.818;37.084;2023-06-10T03:28:58;100093.84;;;12.66;50.15
72802;BME280;61891;55.818;37.084;2023-06-10T03:31:24;100094.53;;;12.76;50.08
72802;BME280;61891;55.818;37.084;2023-06-10T03:33:52;100118.19;;;12.96;49.78
72802;BME280;61891;55.818;37.084;2023-06-10T03:36:17;100118.53;;;13.01;49.94
72802;BME280;61891;55.818;37.084;2023-06-10T03:38:43;100049.44;;;12.58;49.69
72802;BME280;61891;55.818;37.084;2023-06-10T03:41:09;100129.53;;;13.14;49.50
72802;BME280;61891;55.818;37.084;2023-06-10T03:43:38;100129.75;;;13.20;49.38
72802;BME280;61891;55.818;37.084;2023-06-10T03:46:06;100132.41;;;13.29;49.26
72802;BME280;61891;55.818;37.084;2023-06-10T03:48:32;100138.91;;;13.34;49.17
72802;BME280;61891;55.818;37.084;2023-06-10T03:50:58;100131.91;;;13.41;48.98
72802;BME280;61891;55.818;37.084;2023-06-10T03:53:24;100133.75;;;13.49;49.17
72802;BME280;61891;55.818;37.084;2023-06-10T03:55:50;100134.91;;;13.54;49.03
72802;BME280;61891;55.818;37.084;2023-06-10T03:58:19;100114.28;;;13.48;48.89
72802;BME280;61891;55.818;37.084;2023-06-10T04:00:45;100126.59;;;13.66;48.70
72802;BME280;61891;55.818;37.084;2023-06-10T04:03:12;100133.91;;;13.72;48.55
72802;BME280;61891;55.818;37.084;2023-06-10T04:05:43;100134.22;;;13.77;48.32
72802;BME280;61891;55.818;37.084;2023-06-10T04:08:09;100082.81;;;13.52;48.58
72802;BME280;61891;55.818;37.084;2023-06-10T04:10:35;100146.69;;;13.93;48.23
72802;BME280;61891;55.818;37.084;2023-06-10T04:13:01;100138.53;;;13.94;47.79
72802;BME280;61891;55.818;37.084;2023-06-10T04:15:32;100140.19;;;14.03;47.76
72802;BME280;61891;55.818;37.084;2023-06-10T04:18:02;100150.66;;;14.13;47.72
72802;BME280;61891;55.818;37.084;2023-06-10T04:20:28;100148.13;;;14.19;47.85
72802;BME280;61891;55.818;37.084;2023-06-10T04:22:53;100150.13;;;14.26;47.50
72802;BME280;61891;55.818;37.084;2023-06-10T04:25:19;100124.16;;;14.19;47.31
72802;BME280;61891;55.818;37.084;2023-06-10T04:27:48;100143.75;;;14.35;47.13
72802;BME280;61891;55.818;37.084;2023-06-10T04:30:15;100134.09;;;14.34;47.12
72802;BME280;61891;55.818;37.084;2023-06-10T04:32:41;100142.91;;;14.50;46.91
72802;BME280;61891;55.818;37.084;2023-06-10T04:35:12;100137.22;;;14.54;46.71
72802;BME280;61891;55.818;37.084;2023-06-10T04:37:39;100135.38;;;14.54;46.97
72802;BME280;61891;55.818;37.084;2023-06-10T04:40:06;100150.34;;;14.63;46.60
72802;BME280;61891;55.818;37.084;2023-06-10T04:42:32;100136.53;;;14.60;46.42
72802;BME280;61891;55.818;37.084;2023-06-10T04:44:58;100153.13;;;14.78;46.37
72802;BME280;61891;55.818;37.084;2023-06-10T04:47:25;100109.06;;;14.51;46.21
72802;BME280;61891;55.818;37.084;2023-06-10T04:49:52;100155.22;;;14.91;46.26
72802;BME280;61891;55.818;37.084;2023-06-10T04:52:18;100157.66;;;15.00;45.99
72802;BME280;61891;55.818;37.084;2023-06-10T04:54:43;100160.28;;;15.08;45.78
72802;BME280;61891;55.818;37.084;2023-06-10T04:57:09;100114.88;;;14.86;45.78
72802;BME280;61891;55.818;37.084;2023-06-10T04:59:37;100145.94;;;15.09;45.49
72802;BME280;61891;55.818;37.084;2023-06-10T05:02:06;100164.63;;;15.32;45.01
72802;BME280;61891;55.818;37.084;2023-06-10T05:04:32;100156.16;;;15.29;45.12
72802;BME280;61891;55.818;37.084;2023-06-10T05:06:58;100146.28;;;15.29;45.13
72802;BME280;61891;55.818;37.084;2023-06-10T05:09:23;100178.34;;;15.52;44.92
72802;BME280;61891;55.818;37.084;2023-06-10T05:11:49;100175.31;;;15.55;44.62
72802;BME280;61891;55.818;37.084;2023-06-10T05:14:15;100148.00;;;15.45;44.67
72802;BME280;61891;55.818;37.084;2023-06-10T05:16:44;100153.28;;;15.53;44.37
72802;BME280;61891;55.818;37.084;2023-06-10T05:19:10;100180.97;;;15.68;44.28
72802;BME280;61891;55.818;37.084;2023-06-10T05:21:36;100154.94;;;15.54;44.10
72802;BME280;61891;55.818;37.084;2023-06-10T05:24:02;100184.03;;;15.80;44.07
72802;BME280;61891;55.818;37.084;2023-06-10T05:26:28;100178.03;;;15.78;43.74
72802;BME280;61891;55.818;37.084;2023-06-10T05:28:57;100183.09;;;15.73;43.53
72802;BME280;61891;55.818;37.084;2023-06-10T05:31:22;100165.09;;;15.67;43.80
72802;BME280;61891;55.818;37.084;2023-06-10T05:33:48;100147.59;;;15.64;43.35
72802;BME280;61891;55.818;37.084;2023-06-10T05:36:13;100191.19;;;16.02;43.39
72802;BME280;61891;55.818;37.084;2023-06-10T05:38:39;100165.63;;;16.00;43.23
72802;BME280;61891;55.818;37.084;2023-06-10T05:41:05;100162.22;;;16.06;43.01
72802;BME280;61891;55.818;37.084;2023-06-10T05:43:31;100189.56;;;16.31;43.03
72802;BME280;61891;55.818;37.084;2023-06-10T05:45:56;100193.16;;;16.38;42.89
72802;BME280;61891;55.818;37.084;2023-06-10T05:48:22;100204.88;;;16.37;42.64
72802;BME280;61891;55.818;37.084;2023-06-10T05:50:48;100205.44;;;16.47;42.59
72802;BME280;61891;55.818;37.084;2023-06-10T05:53:14;100167.59;;;16.35;42.18
72802;BME280;61891;55.818;37.084;2023-06-10T05:55:44;100202.88;;;16.68;42.13
72802;BME280;61891;55.818;37.084;2023-06-10T05:58:11;100206.38;;;16.84;42.17
72802;BME280;61891;55.818;37.084;2023-06-10T06:00:41;100179.22;;;16.87;42.03
72802;BME280;61891;55.818;37.084;2023-06-10T06:03:07;100198.84;;;17.08;41.45
72802;BME280;61891;55.818;37.084;2023-06-10T06:05:36;100197.34;;;17.21;41.63
72802;BME280;61891;55.818;37.084;2023-06-10T06:08:09;100189.38;;;17.27;41.42
72802;BME280;61891;55.818;37.084;2023-06-10T06:10:35;100198.44;;;17.48;41.14
72802;BME280;61891;55.818;37.084;2023-06-10T06:13:01;100191.94;;;17.57;40.99
72802;BME280;61891;55.818;37.084;2023-06-10T06:15:27;100196.19;;;17.66;40.33
72802;BME280;61891;55.818;37.084;2023-06-10T06:17:53;100192.91;;;17.70;40.82
72802;BME280;61891;55.818;37.084;2023-06-10T06:20:22;100203.75;;;17.84;40.56
72802;BME280;61891;55.818;37.084;2023-06-10T06:22:48;100202.25;;;18.02;40.52
72802;BME280;61891;55.818;37.084;2023-06-10T06:25:14;100190.34;;;18.12;40.19
72802;BME280;61891;55.818;37.084;2023-06-10T06:27:40;100186.78;;;18.32;39.66
72802;BME280;61891;55.818;37.084;2023-06-10T06:30:06;100196.22;;;18.56;39.50
72802;BME280;61891;55.818;37.084;2023-06-10T06:32:32;100213.47;;;18.68;39.57
72802;BME280;61891;55.818;37.084;2023-06-10T06:34:58;100184.13;;;18.67;39.02
72802;BME280;61891;55.818;37.084;2023-06-10T06:37:24;100202.00;;;18.94;38.93
72802;BME280;61891;55.818;37.084;2023-06-10T06:39:55;100191.13;;;19.09;38.87
72802;BME280;61891;55.818;37.084;2023-06-10T06:42:21;100205.84;;;19.26;38.14
72802;BME280;61891;55.818;37.084;2023-06-10T06:44:56;100201.91;;;19.29;38.17
72802;BME280;61891;55.818;37.084;2023-06-10T06:47:22;100221.13;;;19.19;38.02
72802;BME280;61891;55.818;37.084;2023-06-10T06:49:48;100210.63;;;18.77;38.77
72802;BME280;61891;55.818;37.084;2023-06-10T06:52:17;100222.63;;;18.81;38.28
72802;BME280;61891;55.818;37.084;2023-06-10T06:54:42;100229.59;;;18.68;38.43
72802;BME280;61891;55.818;37.084;2023-06-10T06:57:08;100206.44;;;18.67;38.10
72802;BME280;61891;55.818;37.084;2023-06-10T06:59:34;100205.31;;;18.90;38.29
72802;BME280;61891;55.818;37.084;2023-06-10T07:02:00;100222.81;;;19.33;38.41
72802;BME280;61891;55.818;37.084;2023-06-10T07:04:25;100214.34;;;19.37;37.12
72802;BME280;61891;55.818;37.084;2023-06-10T07:06:51;100222.44;;;19.50;37.20
72802;BME280;61891;55.818;37.084;2023-06-10T07:09:17;100219.00;;;19.69;37.08
72802;BME280;61891;55.818;37.084;2023-06-10T07:11:43;100226.25;;;19.69;37.39
72802;BME280;61891;55.818;37.084;2023-06-10T07:14:09;100224.91;;;19.45;37.35
72802;BME280;61891;55.818;37.084;2023-06-10T07:16:34;100229.84;;;19.28;36.75
72802;BME280;61891;55.818;37.084;2023-06-10T07:19:00;100222.91;;;18.99;36.76
72802;BME280;61891;55.818;37.084;2023-06-10T07:21:26;100217.75;;;19.04;37.07
72802;BME280;61891;55.818;37.084;2023-06-10T07:23:54;100241.19;;;19.17;37.29
72802;BME280;61891;55.818;37.084;2023-06-10T07:26:21;100245.63;;;18.96;36.61
72802;BME280;61891;55.818;37.084;2023-06-10T07:28:47;100223.56;;;18.66;36.90
72802;BME280;61891;55.818;37.084;2023-06-10T07:31:12;100246.31;;;18.71;36.98
72802;BME280;61891;55.818;37.084;2023-06-10T07:33:38;100256.19;;;18.98;37.15
72802;BME280;61891;55.818;37.084;2023-06-10T07:36:07;100243.97;;;18.95;36.91
72802;BME280;61891;55.818;37.084;2023-06-10T07:38:33;100238.75;;;18.81;36.93
72802;BME280;61891;55.818;37.084;2023-06-10T07:40:59;100241.97;;;18.70;36.80
72802;BME280;61891;55.818;37.084;2023-06-10T07:43:25;100250.78;;;18.91;36.42
72802;BME280;61891;55.818;37.084;2023-06-10T07:45:51;100248.00;;;19.19;36.70
72802;BME280;61891;55.818;37.084;2023-06-10T07:48:17;100255.38;;;19.52;36.17
72802;BME280;61891;55.818;37.084;2023-06-10T07:50:42;100265.13;;;19.66;36.21
72802;BME280;61891;55.818;37.084;2023-06-10T07:53:08;100263.91;;;19.75;35.98
72802;BME280;61891;55.818;37.084;2023-06-10T07:55:34;100268.06;;;19.78;35.87
72802;BME280;61891;55.818;37.084;2023-06-10T07:57:59;100260.59;;;19.73;35.23
72802;BME280;61891;55.818;37.084;2023-06-10T08:00:25;100270.97;;;19.89;35.98
72802;BME280;61891;55.818;37.084;2023-06-10T08:02:51;100263.94;;;20.02;35.83
72802;BME280;61891;55.818;37.084;2023-06-10T08:05:17;100260.22;;;20.16;35.47
72802;BME280;61891;55.818;37.084;2023-06-10T08:07:42;100271.41;;;20.26;34.32
72802;BME280;61891;55.818;37.084;2023-06-10T08:10:09;100270.38;;;20.40;35.12
72802;BME280;61891;55.818;37.084;2023-06-10T08:12:35;100264.75;;;20.62;34.74
72802;BME280;61891;55.818;37.084;2023-06-10T08:15:02;100267.03;;;20.84;34.56
72802;BME280;61891;55.818;37.084;2023-06-10T08:17:30;100265.03;;;21.18;34.35
72802;BME280;61891;55.818;37.084;2023-06-10T08:19:56;100276.00;;;21.36;33.72
72802;BME280;61891;55.818;37.084;2023-06-10T08:22:22;100273.19;;;21.56;33.16
72802;BME280;61891;55.818;37.084;2023-06-10T08:24:47;100282.34;;;21.55;33.36
72802;BME280;61891;55.818;37.084;2023-06-10T08:27:13;100280.59;;;21.67;31.72
72802;BME280;61891;55.818;37.084;2023-06-10T08:29:39;100267.53;;;21.64;32.65
72802;BME280;61891;55.818;37.084;2023-06-10T08:32:05;100277.66;;;21.75;32.45
72802;BME280;61891;55.818;37.084;2023-06-10T08:34:33;100291.94;;;22.14;31.97
72802;BME280;61891;55.818;37.084;2023-06-10T08:37:00;100292.09;;;22.69;31.79
72802;BME280;61891;55.818;37.084;2023-06-10T08:39:26;100287.09;;;23.27;29.40
72802;BME280;61891;55.818;37.084;2023-06-10T08:44:29;100284.25;;;23.70;30.15
72802;BME280;61891;55.818;37.084;2023-06-10T08:46:58;100296.03;;;23.76;29.48
72802;BME280;61891;55.818;37.084;2023-06-10T08:49:26;100263.50;;;24.06;29.20
72802;BME280;61891;55.818;37.084;2023-06-10T08:51:58;100295.16;;;24.59;28.65
72802;BME280;61891;55.818;37.084;2023-06-10T08:54:30;100287.00;;;25.05;28.34
72802;BME280;61891;55.818;37.084;2023-06-10T08:56:59;100254.28;;;25.24;27.82
72802;BME280;61891;55.818;37.084;2023-06-10T08:59:25;100287.63;;;25.76;27.45
72802;BME280;61891;55.818;37.084;2023-06-10T09:01:52;100296.06;;;26.37;26.71
72802;BME280;61891;55.818;37.084;2023-06-10T09:04:19;100300.47;;;26.26;26.62
72802;BME280;61891;55.818;37.084;2023-06-10T09:06:46;100290.56;;;25.46;26.53
72802;BME280;61891;55.818;37.084;2023-06-10T09:09:14;100300.41;;;25.24;26.68
72802;BME280;61891;55.818;37.084;2023-06-10T09:11:43;100303.88;;;24.72;26.67
72802;BME280;61891;55.818;37.084;2023-06-10T09:14:12;100294.44;;;23.87;26.98
72802;BME280;61891;55.818;37.084;2023-06-10T09:16:39;100302.56;;;23.20;27.77
72802;BME280;61891;55.818;37.084;2023-06-10T09:19:05;100270.56;;;22.80;27.63
72802;BME280;61891;55.818;37.084;2023-06-10T09:21:34;100311.28;;;23.22;27.75
72802;BME280;61891;55.818;37.084;2023-06-10T09:24:01;100304.41;;;23.74;27.37
72802;BME280;61891;55.818;37.084;2023-06-10T09:26:29;100304.53;;;23.79;26.45
72802;BME280;61891;55.818;37.084;2023-06-10T09:29:06;100295.41;;;24.46;26.84
72802;BME280;61891;55.818;37.084;2023-06-10T09:31:37;100298.88;;;25.68;26.11
72802;BME280;61891;55.818;37.084;2023-06-10T09:34:25;100288.94;;;26.69;24.28
72802;BME280;61891;55.818;37.084;2023-06-10T09:36:51;100305.09;;;27.14;25.00
72802;BME280;61891;55.818;37.084;2023-06-10T09:39:18;100303.47;;;26.58;24.74
72802;BME280;61891;55.818;37.084;2023-06-10T09:41:45;100308.44;;;25.59;25.46
72802;BME280;61891;55.818;37.084;2023-06-10T09:44:12;100289.47;;;24.95;25.53
72802;BME280;61891;55.818;37.084;2023-06-10T09:46:40;100317.66;;;25.69;25.57
72802;BME280;61891;55.818;37.084;2023-06-10T09:49:06;100306.56;;;26.83;24.79
72802;BME280;61891;55.818;37.084;2023-06-10T09:51:32;100313.75;;;27.77;23.52
72802;BME280;61891;55.818;37.084;2023-06-10T09:53:58;100299.22;;;28.57;22.71
72802;BME280;61891;55.818;37.084;2023-06-10T09:56:35;100274.66;;;28.99;21.88
72802;BME280;61891;55.818;37.084;2023-06-10T09:59:01;100300.88;;;29.73;21.30
72802;BME280;61891;55.818;37.084;2023-06-10T10:01:28;100293.28;;;30.31;21.82
72802;BME280;61891;55.818;37.084;2023-06-10T10:03:53;100305.28;;;29.89;20.98
72802;BME280;61891;55.818;37.084;2023-06-10T10:06:20;100303.03;;;29.66;21.58
72802;BME280;61891;55.818;37.084;2023-06-10T10:08:48;100269.22;;;30.07;20.84
72802;BME280;61891;55.818;37.084;2023-06-10T10:11:16;100308.56;;;30.93;20.86
72802;BME280;61891;55.818;37.084;2023-06-10T10:13:45;100310.63;;;31.41;19.83
72802;BME280;61891;55.818;37.084;2023-06-10T10:16:13;100312.56;;;31.90;20.05
72802;BME280;61891;55.818;37.084;2023-06-10T10:18:43;100310.69;;;32.20;19.22
72802;BME280;61891;55.818;37.084;2023-06-10T10:21:13;100295.03;;;32.20;18.72
72802;BME280;61891;55.818;37.084;2023-06-10T10:23:53;100310.81;;;32.67;18.06
72802;BME280;61891;55.818;37.084;2023-06-10T10:26:21;100305.09;;;32.93;18.95
72802;BME280;61891;55.818;37.084;2023-06-10T10:29:13;100294.09;;;33.17;18.35
72802;BME280;61891;55.818;37.084;2023-06-10T10:31:42;100314.56;;;32.82;18.52
72802;BME280;61891;55.818;37.084;2023-06-10T10:34:13;100307.69;;;31.77;18.45
72802;BME280;61891;55.818;37.084;2023-06-10T10:36:41;100317.91;;;30.21;19.94
72802;BME280;61891;55.818;37.084;2023-06-10T10:39:08;100299.81;;;29.11;19.63
72802;BME280;61891;55.818;37.084;2023-06-10T10:41:36;100316.16;;;29.59;19.75
72802;BME280;61891;55.818;37.084;2023-06-10T10:44:04;100309.06;;;29.05;20.45
72802;BME280;61891;55.818;37.084;2023-06-10T10:46:53;100313.69;;;28.26;20.62
72802;BME280;61891;55.818;37.084;2023-06-10T10:49:20;100307.38;;;27.44;21.61
72802;BME280;61891;55.818;37.084;2023-06-10T10:51:59;100316.13;;;26.69;20.70
72802;BME280;61891;55.818;37.084;2023-06-10T10:54:30;100315.28;;;26.18;21.17
72802;BME280;61891;55.818;37.084;2023-06-10T10:59:55;100285.66;;;25.31;21.71
72802;BME280;61891;55.818;37.084;2023-06-10T11:05:07;100307.19;;;29.11;20.78
72802;BME280;61891;55.818;37.084;2023-06-10T11:07:35;100288.38;;;30.12;19.69
72802;BME280;61891;55.818;37.084;2023-06-10T11:10:12;100297.53;;;29.50;18.90
72802;BME280;61891;55.818;37.084;2023-06-10T11:12:51;100307.59;;;28.18;19.71
72802;BME280;61891;55.818;37.084;2023-06-10T11:15:22;100311.81;;;27.28;20.80
72802;BME280;61891;55.818;37.084;2023-06-10T11:18:23;100322.75;;;27.12;20.42
72802;BME280;61891;55.818;37.084;2023-06-10T11:26:14;100327.25;;;27.45;20.88
72802;BME280;61891;55.818;37.084;2023-06-10T11:28:41;100326.16;;;28.48;20.49
72802;BME280;61891;55.818;37.084;2023-06-10T11:31:09;100316.22;;;29.89;20.12
72802;BME280;61891;55.818;37.084;2023-06-10T11:33:51;100327.13;;;29.11;19.78
72802;BME280;61891;55.818;37.084;2023-06-10T11:36:17;100322.16;;;28.98;19.72
72802;BME280;61891;55.818;37.084;2023-06-10T11:38:43;100335.34;;;29.89;19.42
72802;BME280;61891;55.818;37.084;2023-06-10T11:41:11;100304.91;;;31.33;18.27
72802;BME280;61891;55.818;37.084;2023-06-10T11:43:40;100317.00;;;32.54;17.04
72802;BME280;61891;55.818;37.084;2023-06-10T11:46:06;100329.44;;;34.09;17.06
72802;BME280;61891;55.818;37.084;2023-06-10T11:48:33;100323.38;;;35.32;15.73
72802;BME280;61891;55.818;37.084;2023-06-10T11:50:59;100321.69;;;35.58;16.16
72802;BME280;61891;55.818;37.084;2023-06-10T11:53:25;100330.16;;;34.33;16.28
72802;BME280;61891;55.818;37.084;2023-06-10T11:55:53;100314.69;;;32.38;16.96
72802;BME280;61891;55.818;37.084;2023-06-10T11:58:21;100329.66;;;31.67;17.36
72802;BME280;61891;55.818;37.084;2023-06-10T12:00:55;100329.41;;;30.78;17.72
72802;BME280;61891;55.818;37.084;2023-06-10T12:13:58;100318.25;;;31.50;16.89
72802;BME280;61891;55.818;37.084;2023-06-10T12:16:24;100308.03;;;32.10;17.14
72802;BME280;61891;55.818;37.084;2023-06-10T12:18:50;100299.50;;;32.45;16.89
72802;BME280;61891;55.818;37.084;2023-06-10T12:21:34;100327.19;;;33.30;16.00
72802;BME280;61891;55.818;37.084;2023-06-10T12:24:04;100325.91;;;35.14;15.14
72802;BME280;61891;55.818;37.084;2023-06-10T12:26:42;100329.72;;;36.40;14.54
72802;BME280;61891;55.818;37.084;2023-06-10T12:29:23;100331.28;;;37.74;13.89
72802;BME280;61891;55.818;37.084;2023-06-10T12:31:59;100312.03;;;38.47;13.91
72802;BME280;61891;55.818;37.084;2023-06-10T12:36:55;100327.59;;;39.53;13.13
72802;BME280;61891;55.818;37.084;2023-06-10T12:39:21;100328.00;;;39.35;13.00
72802;BME280;61891;55.818;37.084;2023-06-10T12:41:48;100328.44;;;38.69;13.41
72802;BME280;61891;55.818;37.084;2023-06-10T12:44:14;100331.22;;;36.69;13.92
72802;BME280;61891;55.818;37.084;2023-06-10T12:46:39;100321.06;;;36.33;14.61
72802;BME280;61891;55.818;37.084;2023-06-10T12:49:05;100331.50;;;34.36;14.87
72802;BME280;61891;55.818;37.084;2023-06-10T12:51:30;100330.28;;;32.42;16.03
72802;BME280;61891;55.818;37.084;2023-06-10T12:53:56;100334.84;;;30.89;16.67
72802;BME280;61891;55.818;37.084;2023-06-10T12:56:22;100317.25;;;29.68;17.01
72802;BME280;61891;55.818;37.084;2023-06-10T12:58:49;100336.09;;;29.02;18.16
72802;BME280;61891;55.818;37.084;2023-06-10T13:01:14;100313.97;;;29.61;17.92
72802;BME280;61891;55.818;37.084;2023-06-10T13:03:40;100313.44;;;32.20;16.56
72802;BME280;61891;55.818;37.084;2023-06-10T13:06:09;100319.53;;;34.08;15.94
72802;BME280;61891;55.818;37.084;2023-06-10T13:08:34;100326.34;;;32.53;16.10
72802;BME280;61891;55.818;37.084;2023-06-10T13:11:00;100311.63;;;31.56;16.76
72802;BME280;61891;55.818;37.084;2023-06-10T13:13:26;100319.59;;;33.65;15.57